Pagrindinis puslapis
METAR-TAF:

METAR-TAF

Oro uostai :

Amarilas, Teksasas, Jungtinės Amerikos Valstijos

platuma: 35-13-12N, ilguma: 101-43-02W, Aukštis: 1099 m

Dabartinis oras

Ataskaita buvo paskelbta 52 minutes, ne 04:53 UTC
Vėjas 6 kt iš Rytų/Pietryčių
Temperatūra 17°C
Drėgmė 68%
Slėgis 1022 hPa
Matomumas: 16.1 km
Giedras dangus

METAR: KAMA 220453Z AUTO 12006KT 10SM CLR 17/11 A3018 RMK AO2 SLP182 T01670111

Laikas: 00:45 (05:45 UTC)

Prognozė

Ataskaita buvo paskelbta 19 minutes, ne 05:26 UTC
Prognozė galioja nuo 22 metu 06 UTC su 23 metu 06 UTC
Vėjas 9 kt iš Pietų/Pietryčių
Matomumas: 10 km
Mažai debesys ne aukštis 25000 ft
Nuo 22 metu 1300 UTC
Vėjas 18 kt iš Pietų/Pietvakarių
Matomumas: 10 km
Mažai debesys ne aukštis 25000 ft

TAF: KAMA 220526Z 2206/2306 16009KT P6SM FEW250 FM221300 20018KT P6SM FEW250

Orai ataskaitas ir orų prognozės (METAR, TAF).

turimą stotys yra geltonos ir raudonos taškus žemėlapyje.

Perkelti pele per norėdami pamatyti stoties vardą.

Tada spustelėkite, norėdami matyti oro stebėjimo ir prognozės.

Norėdami pakeisti žemėlapį: spustelėkite ant žalios mygtukų su juodo kryžiaus žemyn,; žalią mygtuką su brūkšneliu, jei norite nutolinti; arba žalių rodyklių gretimoms žemėlapius.


METAR-TAF: